createdAt,value
2018-03-03T00:00:30.538Z,80.00
2018-03-03T00:02:59.332Z,79.32
2018-03-03T00:05:27.659Z,79.97
2018-03-03T00:07:55.304Z,79.72
2018-03-03T00:10:22.932Z,82.40
2018-03-03T00:12:50.581Z,80.57
2018-03-03T00:15:18.959Z,86.53
2018-03-03T00:17:46.610Z,82.60
2018-03-03T00:20:14.213Z,81.25
2018-03-03T00:22:42.588Z,80.00
2018-03-03T00:25:10.201Z,80.05
2018-03-03T00:27:38.595Z,73.30
2018-03-03T00:30:06.248Z,80.30
2018-03-03T00:32:33.896Z,71.87
2018-03-03T00:35:01.539Z,72.97
2018-03-03T00:37:29.679Z,74.25
2018-03-03T00:39:57.946Z,80.93
2018-03-03T00:42:25.550Z,77.87
2018-03-03T00:44:53.164Z,76.75
2018-03-03T00:47:20.791Z,79.12
2018-03-03T00:49:48.410Z,77.57
2018-03-03T00:52:16.018Z,79.40
2018-03-03T00:54:44.418Z,80.80
2018-03-03T00:57:12.036Z,79.10
2018-03-03T00:59:39.659Z,79.22
2018-03-03T01:02:07.244Z,79.93
2018-03-03T01:04:34.889Z,81.30
2018-03-03T01:07:02.507Z,81.97
2018-03-03T01:09:30.946Z,78.10
2018-03-03T01:11:59.265Z,81.35
2018-03-03T01:14:27.551Z,77.25
2018-03-03T01:16:55.169Z,81.45
2018-03-03T01:19:22.834Z,78.47
2018-03-03T01:21:50.446Z,78.22
2018-03-03T01:24:18.075Z,78.37
2018-03-03T01:26:46.436Z,78.40
2018-03-03T01:29:14.852Z,76.25
2018-03-03T01:31:42.468Z,78.57
2018-03-03T01:34:10.093Z,83.95
2018-03-03T01:36:38.479Z,75.40
2018-03-03T01:39:06.172Z,76.62
2018-03-03T01:41:33.801Z,76.22
2018-03-03T01:44:01.474Z,76.55
2018-03-03T01:46:29.829Z,75.28
2018-03-03T01:48:59.011Z,79.25
2018-03-03T01:51:38.307Z,81.93
2018-03-03T01:54:07.058Z,79.72
2018-03-03T01:56:35.611Z,78.25
2018-03-03T01:59:03.171Z,77.93
2018-03-03T02:01:30.827Z,80.80
2018-03-03T02:03:59.381Z,79.35
2018-03-03T02:06:27.663Z,79.90
2018-03-03T02:08:55.231Z,82.72
2018-03-03T02:11:23.593Z,87.60
2018-03-03T02:13:51.900Z,85.60
2018-03-03T02:16:19.496Z,85.78
2018-03-03T02:18:47.051Z,85.57
2018-03-03T02:21:16.943Z,80.05
2018-03-03T02:23:44.848Z,86.37
2018-03-03T02:26:13.232Z,85.95
2018-03-03T02:28:40.776Z,83.12
2018-03-03T02:31:08.363Z,85.28
2018-03-03T02:33:36.672Z,82.78
2018-03-03T02:36:04.276Z,89.72
2018-03-03T02:38:32.602Z,83.93
2018-03-03T02:41:00.170Z,84.60
2018-03-03T02:43:29.399Z,82.22
2018-03-03T02:45:57.227Z,84.97
2018-03-03T02:48:27.305Z,86.35
2018-03-03T02:50:54.953Z,84.47
2018-03-03T02:53:22.525Z,85.70
2018-03-03T02:55:50.098Z,89.45
2018-03-03T02:58:18.479Z,86.82
2018-03-03T03:00:46.814Z,90.62
2018-03-03T03:03:14.405Z,86.18
2018-03-03T03:05:41.975Z,85.15
2018-03-03T03:08:09.544Z,89.95
2018-03-03T03:10:37.125Z,89.97
2018-03-03T03:13:05.443Z,86.12
2018-03-03T03:15:33.034Z,88.93
2018-03-03T03:18:00.623Z,83.57
2018-03-03T03:20:29.300Z,90.30
2018-03-03T03:22:58.509Z,91.55
2018-03-03T03:25:26.073Z,85.10
2018-03-03T03:27:53.659Z,84.32
2018-03-03T03:30:21.997Z,83.62
2018-03-03T03:32:53.528Z,85.65
2018-03-03T03:35:22.804Z,89.85
2018-03-03T03:37:50.334Z,84.45
2018-03-03T03:40:17.876Z,83.28
2018-03-03T03:42:49.127Z,80.40
2018-03-03T03:45:16.710Z,82.70
2018-03-03T03:47:44.251Z,79.65
2018-03-03T03:50:11.803Z,82.50
2018-03-03T03:52:39.334Z,84.45
2018-03-03T03:55:06.905Z,85.87
2018-03-03T03:57:34.442Z,80.30
2018-03-03T04:00:06.633Z,83.00
2018-03-03T04:02:40.062Z,83.50
2018-03-03T04:05:09.512Z,84.53
2018-03-03T04:07:37.825Z,89.32
2018-03-03T04:10:08.361Z,83.30
2018-03-03T04:12:41.752Z,83.57
2018-03-03T04:15:11.268Z,83.75
2018-03-03T04:17:38.795Z,79.20
2018-03-03T04:20:12.471Z,83.18
2018-03-03T04:22:40.797Z,82.70
2018-03-03T04:25:09.361Z,81.57
2018-03-03T04:27:36.917Z,80.95
2018-03-03T04:30:04.509Z,82.22
2018-03-03T04:32:33.037Z,85.22
2018-03-03T04:35:03.550Z,80.20
2018-03-03T04:37:31.125Z,83.12
2018-03-03T04:40:08.691Z,80.30
2018-03-03T04:42:36.262Z,81.30
2018-03-03T04:45:03.819Z,84.15
2018-03-03T04:47:31.521Z,82.37
2018-03-03T04:49:59.088Z,81.80
2018-03-03T04:52:28.623Z,83.18
2018-03-03T04:55:01.023Z,82.88
2018-03-03T04:57:29.543Z,83.18
2018-03-03T05:00:03.457Z,77.37
2018-03-03T05:05:51.472Z,76.85
2018-03-03T05:08:24.724Z,74.75
2018-03-03T05:10:52.316Z,71.15
2018-03-03T05:13:41.221Z,73.22
2018-03-03T05:16:14.428Z,70.12
2018-03-03T05:21:53.549Z,64.95
2018-03-03T05:24:26.999Z,65.97
2018-03-03T05:27:01.022Z,59.90
2018-03-03T05:29:36.107Z,60.97
2018-03-03T05:32:09.861Z,61.65
2018-03-03T05:34:43.022Z,60.15
2018-03-03T05:37:28.207Z,63.58
2018-03-03T05:43:06.330Z,59.30
2018-03-03T05:45:38.771Z,55.60
2018-03-03T05:51:12.855Z,52.55
2018-03-03T05:56:51.157Z,51.28
2018-03-03T05:59:24.458Z,56.33
2018-03-03T06:01:57.667Z,55.47
2018-03-03T06:07:32.799Z,52.95
2018-03-03T06:10:04.063Z,56.22
2018-03-03T06:12:31.801Z,51.17
2018-03-03T06:14:59.366Z,53.42
2018-03-03T06:17:27.834Z,49.22
2018-03-03T06:19:55.488Z,50.10
2018-03-03T06:22:23.110Z,45.67
2018-03-03T06:24:51.691Z,46.85
2018-03-03T06:27:19.300Z,46.58
2018-03-03T06:29:46.878Z,43.85
2018-03-03T06:32:14.467Z,45.88
2018-03-03T06:34:42.021Z,44.35
2018-03-03T06:37:09.595Z,42.72
2018-03-03T06:39:38.157Z,41.53
2018-03-03T06:42:06.733Z,40.63
2018-03-03T06:44:34.955Z,41.42
2018-03-03T06:47:02.527Z,44.38
2018-03-03T06:49:30.202Z,43.78
2018-03-03T06:51:58.537Z,41.55
2018-03-03T06:54:26.153Z,41.05
2018-03-03T06:56:53.839Z,40.60
2018-03-03T06:59:22.198Z,41.40
2018-03-03T07:01:49.768Z,40.08
2018-03-03T07:04:17.383Z,41.90
2018-03-03T07:06:45.724Z,40.40
2018-03-03T07:09:13.309Z,41.40
2018-03-03T07:11:40.886Z,43.78
2018-03-03T07:14:08.518Z,43.63
2018-03-03T07:16:37.026Z,42.38
2018-03-03T07:19:05.145Z,46.08
2018-03-03T07:21:32.759Z,48.05
2018-03-03T07:24:00.306Z,48.78
2018-03-03T07:26:27.899Z,50.15
2018-03-03T07:28:55.848Z,49.60
2018-03-03T07:31:23.417Z,46.85
2018-03-03T07:33:50.989Z,51.47
2018-03-03T07:36:18.578Z,55.58
2018-03-03T07:38:46.190Z,52.42
2018-03-03T07:41:13.949Z,53.73
2018-03-03T07:43:41.623Z,50.33
2018-03-03T07:46:09.233Z,51.97
2018-03-03T07:48:37.666Z,54.17
2018-03-03T07:51:06.762Z,54.10
2018-03-03T07:53:36.047Z,55.10
2018-03-03T07:56:03.623Z,50.37
2018-03-03T07:58:32.984Z,56.73
2018-03-03T08:01:00.545Z,53.27
2018-03-03T08:03:28.416Z,55.07
2018-03-03T08:05:56.760Z,55.27
2018-03-03T08:08:26.426Z,57.57
2018-03-03T08:11:06.698Z,55.30
2018-03-03T08:13:34.304Z,56.10
2018-03-03T08:16:02.546Z,56.87
2018-03-03T08:18:30.147Z,62.57
2018-03-03T08:20:57.709Z,60.73
2018-03-03T08:23:26.108Z,63.50
2018-03-03T08:25:53.729Z,60.90
2018-03-03T08:28:22.064Z,61.57
2018-03-03T08:30:49.644Z,60.07
2018-03-03T08:33:17.198Z,65.80
2018-03-03T08:35:44.827Z,64.03
2018-03-03T08:38:12.543Z,57.90
2018-03-03T08:40:40.903Z,67.53
2018-03-03T08:43:09.242Z,62.27
2018-03-03T08:45:37.071Z,62.57
2018-03-03T08:48:06.430Z,63.00
2018-03-03T08:50:33.991Z,59.20
2018-03-03T08:53:01.577Z,54.90
2018-03-03T08:55:29.140Z,62.17
2018-03-03T08:57:56.818Z,63.50
2018-03-03T09:00:25.160Z,65.80
2018-03-03T09:02:52.794Z,62.77
2018-03-03T09:05:20.359Z,61.47
2018-03-03T09:07:48.847Z,64.70
2018-03-03T09:10:17.165Z,61.60
2018-03-03T09:12:44.757Z,60.83
2018-03-03T09:15:13.111Z,62.00
2018-03-03T09:17:40.700Z,65.30
2018-03-03T09:20:08.289Z,62.57
2018-03-03T09:22:37.018Z,66.10
2018-03-03T09:25:04.916Z,64.80
2018-03-03T09:27:32.545Z,64.43
2018-03-03T09:30:00.891Z,66.60
2018-03-03T09:32:28.478Z,68.53
2018-03-03T09:34:56.060Z,70.77
2018-03-03T09:37:23.635Z,66.27
2018-03-03T09:39:51.990Z,63.60
2018-03-03T09:42:19.592Z,57.47
2018-03-03T09:44:47.177Z,67.27
2018-03-03T09:47:14.760Z,68.83
2018-03-03T09:49:42.339Z,74.60
2018-03-03T09:52:09.901Z,69.07
2018-03-03T09:54:37.498Z,69.97
2018-03-03T09:57:05.873Z,71.97
2018-03-03T09:59:33.480Z,67.03
2018-03-03T10:02:06.293Z,72.70
2018-03-03T10:04:28.709Z,65.67
2018-03-03T10:06:56.297Z,70.03
2018-03-03T10:09:23.876Z,66.27
2018-03-03T10:11:51.563Z,72.47
2018-03-03T10:14:19.118Z,68.80
2018-03-03T10:16:47.616Z,62.53
2018-03-03T10:19:16.098Z,66.77
2018-03-03T10:21:43.676Z,68.00
2018-03-03T10:24:12.066Z,70.47
2018-03-03T10:26:39.625Z,68.63
2018-03-03T10:29:07.233Z,68.40
2018-03-03T10:31:35.740Z,72.57
2018-03-03T10:34:03.341Z,68.77
2018-03-03T10:36:30.899Z,68.70
2018-03-03T10:38:58.493Z,69.97
2018-03-03T10:41:26.835Z,72.77
2018-03-03T10:43:54.425Z,71.43
2018-03-03T10:46:21.970Z,72.93
2018-03-03T10:48:49.565Z,71.27
2018-03-03T10:51:17.114Z,71.33
2018-03-03T10:53:44.668Z,75.40
2018-03-03T10:56:12.993Z,71.60
2018-03-03T10:58:40.573Z,72.20
2018-03-03T11:01:08.160Z,73.70
2018-03-03T11:03:36.543Z,70.60
2018-03-03T11:06:04.104Z,74.63
2018-03-03T11:08:32.489Z,65.77
2018-03-03T11:11:00.086Z,74.03
2018-03-03T11:13:27.692Z,78.50
2018-03-03T11:15:55.319Z,74.23
2018-03-03T11:18:22.874Z,72.53
2018-03-03T11:20:50.471Z,72.50
2018-03-03T11:23:18.062Z,67.40
2018-03-03T11:25:45.652Z,73.27
2018-03-03T11:28:14.160Z,70.83
2018-03-03T11:30:42.712Z,70.60
2018-03-03T11:33:10.297Z,65.77
2018-03-03T11:35:37.954Z,59.07
2018-03-03T11:38:06.163Z,68.13
2018-03-03T11:40:33.798Z,77.30
2018-03-03T11:43:02.119Z,68.17
2018-03-03T11:45:30.491Z,66.47
2018-03-03T11:47:59.013Z,65.70
2018-03-03T11:50:27.122Z,72.50
2018-03-03T11:52:54.734Z,71.50
2018-03-03T11:55:23.088Z,71.17
2018-03-03T11:57:52.517Z,69.10
2018-03-03T12:00:20.089Z,72.20
2018-03-03T12:02:47.795Z,62.97
2018-03-03T12:05:16.193Z,67.20
2018-03-03T12:07:44.525Z,67.90
2018-03-03T12:10:12.847Z,64.77
2018-03-03T12:12:40.456Z,65.03
2018-03-03T12:15:08.060Z,53.30
2018-03-03T12:17:36.080Z,61.90
2018-03-03T12:20:03.643Z,65.90
2018-03-03T12:22:32.034Z,69.63
2018-03-03T12:24:59.651Z,69.67
2018-03-03T12:27:27.308Z,68.60
2018-03-03T12:29:54.913Z,76.13
2018-03-03T12:32:22.885Z,70.23
2018-03-03T12:34:50.444Z,69.30
2018-03-03T12:37:18.820Z,69.00
2018-03-03T12:39:47.163Z,69.47
2018-03-03T12:42:14.777Z,65.67
2018-03-03T12:44:42.423Z,69.97
2018-03-03T12:47:10.014Z,59.50
2018-03-03T12:49:38.321Z,67.43
2018-03-03T12:52:07.469Z,68.60
2018-03-03T12:54:35.751Z,66.70
2018-03-03T12:57:03.394Z,59.50
2018-03-03T12:59:31.745Z,67.63
2018-03-03T13:01:59.363Z,61.00
2018-03-03T13:04:26.957Z,64.40
2018-03-03T13:06:54.575Z,65.20
2018-03-03T13:09:22.136Z,61.07
2018-03-03T13:11:49.690Z,60.40
2018-03-03T13:14:17.321Z,61.80
2018-03-03T13:16:44.880Z,61.43
2018-03-03T13:19:12.666Z,57.70
2018-03-03T13:21:40.313Z,57.23
2018-03-03T13:24:08.074Z,52.77
2018-03-03T13:26:36.657Z,61.90
2018-03-03T13:29:05.003Z,57.57
2018-03-03T13:31:33.404Z,55.97
2018-03-03T13:34:01.029Z,55.10
2018-03-03T13:36:29.403Z,55.87
2018-03-03T13:38:57.028Z,54.83
2018-03-03T13:41:25.381Z,55.07
2018-03-03T13:43:53.820Z,58.17
2018-03-03T13:46:21.493Z,56.17
2018-03-03T13:48:49.869Z,56.63
2018-03-03T13:51:17.563Z,56.50
2018-03-03T13:53:45.151Z,54.57
2018-03-03T13:56:13.500Z,56.73
2018-03-03T13:58:41.146Z,51.80
2018-03-03T14:01:09.527Z,51.57
2018-03-03T14:03:37.332Z,53.93
2018-03-03T14:06:05.637Z,47.40
2018-03-03T14:08:33.267Z,47.83
2018-03-03T14:11:00.863Z,45.40
2018-03-03T14:13:29.381Z,47.70
2018-03-03T14:15:56.984Z,45.97
2018-03-03T14:18:24.577Z,48.53
2018-03-03T14:20:52.142Z,48.70
2018-03-03T14:23:19.739Z,48.73
2018-03-03T14:25:47.319Z,51.43
2018-03-03T14:28:14.913Z,49.53
2018-03-03T14:30:43.233Z,50.83
2018-03-03T14:33:10.832Z,47.33
2018-03-03T14:35:38.504Z,45.40
2018-03-03T14:38:07.022Z,51.13
2018-03-03T14:40:34.999Z,54.50
2018-03-03T14:43:02.617Z,48.80
2018-03-03T14:45:30.202Z,51.17
2018-03-03T14:47:57.869Z,51.57
2018-03-03T14:50:25.475Z,50.13
2018-03-03T14:52:53.063Z,49.10
2018-03-03T14:55:21.386Z,49.30
2018-03-03T14:57:49.092Z,49.00
2018-03-03T15:00:17.458Z,49.00
2018-03-03T15:02:45.054Z,50.23
2018-03-03T15:05:12.725Z,49.37
2018-03-03T15:07:40.338Z,51.43
2018-03-03T15:10:08.046Z,49.33
2018-03-03T15:12:36.085Z,48.50
2018-03-03T15:15:03.675Z,49.03
2018-03-03T15:17:31.241Z,50.37
2018-03-03T15:19:59.606Z,48.20
2018-03-03T15:22:27.184Z,48.80
2018-03-03T15:24:54.780Z,48.00
2018-03-03T15:27:22.356Z,51.77
2018-03-03T15:29:50.712Z,46.33
2018-03-03T15:32:19.010Z,49.50
2018-03-03T15:34:46.633Z,49.00
2018-03-03T15:37:14.282Z,49.17
2018-03-03T15:39:41.889Z,46.20
2018-03-03T15:42:09.428Z,50.17
2018-03-03T15:44:37.796Z,50.70
2018-03-03T15:47:05.958Z,46.53
2018-03-03T15:49:33.568Z,49.40
2018-03-03T15:52:01.936Z,50.67
2018-03-03T15:54:29.545Z,48.80
2018-03-03T15:56:57.129Z,45.17
2018-03-03T15:59:24.726Z,48.40
2018-03-03T16:01:52.293Z,47.93
2018-03-03T16:04:19.874Z,50.37
2018-03-03T16:06:47.451Z,49.67
2018-03-03T16:09:15.819Z,48.17
2018-03-03T16:11:43.370Z,49.87
2018-03-03T16:14:10.962Z,51.30
2018-03-03T16:16:39.392Z,50.37
2018-03-03T16:19:07.096Z,50.40
2018-03-03T16:21:35.079Z,51.00
2018-03-03T16:24:02.964Z,51.47
2018-03-03T16:26:30.539Z,48.60
2018-03-03T16:28:58.212Z,52.45
2018-03-03T16:31:25.850Z,51.45
2018-03-03T16:33:53.819Z,54.10
2018-03-03T16:36:22.175Z,54.20
2018-03-03T16:38:49.734Z,51.17
2018-03-03T16:41:17.358Z,52.93
2018-03-03T16:43:45.700Z,53.60
2018-03-03T16:46:13.327Z,51.37
2018-03-03T16:48:41.796Z,51.30
2018-03-03T16:51:09.416Z,51.60
2018-03-03T16:53:38.177Z,50.37
2018-03-03T16:56:06.682Z,51.47
2018-03-03T16:58:34.313Z,50.80
2018-03-03T17:01:02.243Z,54.03
2018-03-03T17:03:29.886Z,53.57
2018-03-03T17:05:57.482Z,51.63
2018-03-03T17:08:25.966Z,50.40
2018-03-03T17:10:53.587Z,51.00
2018-03-03T17:13:21.166Z,51.83
2018-03-03T17:15:48.775Z,50.93
2018-03-03T17:18:16.343Z,52.80
2018-03-03T17:20:43.954Z,52.10
2018-03-03T17:23:11.513Z,51.43
2018-03-03T17:25:39.164Z,53.37
2018-03-03T17:28:07.067Z,51.47
2018-03-03T17:30:35.289Z,50.87
2018-03-03T17:33:02.875Z,50.07
2018-03-03T17:35:30.752Z,51.27
2018-03-03T17:37:58.588Z,51.80
2018-03-03T17:40:26.203Z,53.63
2018-03-03T17:42:53.912Z,52.93
2018-03-03T17:45:21.626Z,52.63
2018-03-03T17:47:49.301Z,51.87
2018-03-03T17:50:17.736Z,54.10
2018-03-03T17:52:45.312Z,52.00
2018-03-03T17:55:13.962Z,56.03
2018-03-03T17:57:41.627Z,56.37
2018-03-03T18:00:10.216Z,56.00
2018-03-03T18:02:37.850Z,55.30
2018-03-03T18:05:06.236Z,56.87
2018-03-03T18:07:33.897Z,56.17
2018-03-03T18:10:01.528Z,54.20
2018-03-03T18:12:29.140Z,56.67
2018-03-03T18:14:56.754Z,52.50
2018-03-03T18:17:24.316Z,51.87
2018-03-03T18:19:52.075Z,54.13
2018-03-03T18:22:20.482Z,56.53
2018-03-03T18:24:48.089Z,51.35
2018-03-03T18:27:15.688Z,52.70
2018-03-03T18:29:43.360Z,52.30
2018-03-03T18:32:11.753Z,53.43
2018-03-03T18:34:40.130Z,53.38
2018-03-03T18:37:07.700Z,54.47
2018-03-03T18:39:36.131Z,50.67
2018-03-03T18:42:03.718Z,54.00
2018-03-03T18:44:31.358Z,51.40
2018-03-03T18:46:58.933Z,56.13
2018-03-03T18:49:26.581Z,50.95
2018-03-03T18:51:54.918Z,52.80
2018-03-03T18:54:23.287Z,55.20
2018-03-03T18:56:51.635Z,50.33
2018-03-03T18:59:19.246Z,57.08
2018-03-03T19:01:46.882Z,53.45
2018-03-03T19:04:14.498Z,53.17
2018-03-03T19:06:42.864Z,52.92
2018-03-03T19:09:10.448Z,51.70
2018-03-03T19:11:38.038Z,52.90
2018-03-03T19:14:06.055Z,54.50
2018-03-03T19:16:34.929Z,49.83
2018-03-03T19:19:03.289Z,52.67
2018-03-03T19:21:31.699Z,49.15
2018-03-03T19:23:59.476Z,49.80
2018-03-03T19:26:27.084Z,47.60
2018-03-03T19:28:54.651Z,50.38
2018-03-03T19:31:22.363Z,52.88
2018-03-03T19:33:49.923Z,53.80
2018-03-03T19:36:17.506Z,50.23
2018-03-03T19:38:45.870Z,52.63
2018-03-03T19:41:13.442Z,48.75
2018-03-03T19:43:41.054Z,52.00
2018-03-03T19:46:09.651Z,47.62
2018-03-03T19:48:37.309Z,49.45
2018-03-03T19:51:05.816Z,49.13
2018-03-03T19:53:33.480Z,49.80
2018-03-03T19:56:02.371Z,46.05
2018-03-03T19:58:29.957Z,45.97
2018-03-03T20:00:58.360Z,46.95
2018-03-03T20:03:25.957Z,47.78
2018-03-03T20:05:53.601Z,47.47
2018-03-03T20:08:22.014Z,50.03
2018-03-03T20:10:49.640Z,48.50
2018-03-03T20:13:17.225Z,49.95
2018-03-03T20:15:45.594Z,50.33
2018-03-03T20:18:13.206Z,49.03
2018-03-03T20:20:40.820Z,53.15
2018-03-03T20:23:08.516Z,52.00
2018-03-03T20:25:36.908Z,50.55
2018-03-03T20:28:05.015Z,49.75
2018-03-03T20:30:33.436Z,52.87
2018-03-03T20:33:01.010Z,51.57
2018-03-03T20:35:29.357Z,53.40
2018-03-03T20:37:56.952Z,54.13
2018-03-03T20:40:24.568Z,54.65
2018-03-03T20:42:52.958Z,52.83
2018-03-03T20:45:20.595Z,54.80
2018-03-03T20:47:48.322Z,51.63
2018-03-03T20:50:16.683Z,53.73
2018-03-03T20:52:45.122Z,52.53
2018-03-03T20:55:12.680Z,53.28
2018-03-03T20:57:40.302Z,53.63
2018-03-03T21:00:08.762Z,51.53
2018-03-03T21:02:36.372Z,53.60
2018-03-03T21:05:03.988Z,51.10
2018-03-03T21:07:32.452Z,52.10
2018-03-03T21:10:00.742Z,52.67
2018-03-03T21:12:41.078Z,56.43
2018-03-03T21:15:09.741Z,56.40
2018-03-03T21:17:37.384Z,53.05
2018-03-03T21:20:04.973Z,57.15
2018-03-03T21:22:34.373Z,53.67
2018-03-03T21:25:02.217Z,53.83
2018-03-03T21:27:30.600Z,56.60
2018-03-03T21:29:58.177Z,55.25
2018-03-03T21:35:06.618Z,56.97
2018-03-03T21:37:34.213Z,54.40
2018-03-03T21:40:02.255Z,55.77
2018-03-03T21:42:30.734Z,54.30
2018-03-03T21:44:59.947Z,55.03
2018-03-03T21:47:27.593Z,57.83
2018-03-03T21:49:56.011Z,55.20
2018-03-03T21:52:23.566Z,56.20
2018-03-03T21:54:51.907Z,58.27
2018-03-03T21:57:19.586Z,56.60
2018-03-03T21:59:47.163Z,54.93
2018-03-03T22:02:14.822Z,56.90
2018-03-03T22:04:42.548Z,54.10
2018-03-03T22:07:10.152Z,59.10
2018-03-03T22:09:37.801Z,56.45
2018-03-03T22:12:05.460Z,56.67
2018-03-03T22:14:33.085Z,58.00
2018-03-03T22:17:01.516Z,56.87
2018-03-03T22:19:31.399Z,58.53
2018-03-03T22:21:59.789Z,55.63
2018-03-03T22:24:27.389Z,59.05
2018-03-03T22:26:55.120Z,57.53
2018-03-03T22:29:22.696Z,57.58
2018-03-03T22:31:50.306Z,57.72
2018-03-03T22:34:17.862Z,54.95
2018-03-03T22:36:45.460Z,57.17
2018-03-03T22:39:13.104Z,61.00
2018-03-03T22:41:41.008Z,62.95
2018-03-03T22:44:08.574Z,60.90
2018-03-03T22:46:36.181Z,56.45
2018-03-03T22:49:04.601Z,60.05
2018-03-03T22:51:32.237Z,59.70
2018-03-03T22:54:00.448Z,57.45
2018-03-03T22:56:28.071Z,58.10
2018-03-03T22:58:56.405Z,63.28
2018-03-03T23:01:24.011Z,67.57
2018-03-03T23:03:51.582Z,66.90
2018-03-03T23:06:19.200Z,60.83
2018-03-03T23:08:46.792Z,62.95
2018-03-03T23:11:14.736Z,68.40
2018-03-03T23:13:42.315Z,62.13
2018-03-03T23:16:09.928Z,64.10
2018-03-03T23:18:37.539Z,63.58
2018-03-03T23:21:05.113Z,61.25
2018-03-03T23:23:32.757Z,58.35
2018-03-03T23:26:00.934Z,63.60
2018-03-03T23:28:30.173Z,61.30
2018-03-03T23:30:57.843Z,63.55
2018-03-03T23:33:26.208Z,61.40
2018-03-03T23:35:54.535Z,63.87
2018-03-03T23:38:22.459Z,59.75
2018-03-03T23:40:50.036Z,60.03
2018-03-03T23:43:18.395Z,65.72
2018-03-03T23:45:46.763Z,67.18
2018-03-03T23:48:15.283Z,65.45
2018-03-03T23:50:42.918Z,62.17
2018-03-03T23:53:10.521Z,62.85
2018-03-03T23:55:38.171Z,65.82
2018-03-03T23:58:05.722Z,60.30
